Aul Turara Ryskulova, Kazakhstan

1:39 PM +06 on July 22, 2019 (GMT +0600)
Shymkent | | Change Station

Elev 1385 ft 42.36 °N, 69.48 °E | Updated 39 minutes ago

Clear
Clear
99 °F
Feels Like 99 °F
N
7
Wind Variable Wind from North

Today
High -- | Low -- °F
--% Chance of Precip.
Yesterday
High -- | Low -- °F
Precip. -- in
Pressure 29.74 in
Visibility -9999.0 miles
Clouds
Dew Point 50 °F
Humidity 19%
Rainfall 0.00 in
Snow Depth Not available.
6:00 AM 8:49 PM
Waning Gibbous, 75% visible
METAR UAII 220700Z 01003MPS 310V070 CAVOK 37/10 Q1007 R10/0///70 NOSIG RMK QFE720/0960
Pressure 29.74 in
Visibility -9999.0 miles
Clouds
Dew Point 50 °F
Humidity 19%
Rainfall 0.00 in
Snow Depth Not available.
6:00 AM 8:49 PM
Waning Gibbous, 75% visible
METAR UAII 220700Z 01003MPS 310V070 CAVOK 37/10 Q1007 R10/0///70 NOSIG RMK QFE720/0960

Get Severe Weather Alerts

Thanks for signing up!

Be on the lookout for a verification email in your inbox.

You'll start receiving the daily forecast at 6 AM.

×

10-Day Weather Forecast

×

Almanac

Astronomy

Jul. 22, 2019 Rise Set
Actual Time
Civil Twilight
Nautical Twilight
Astronomical Twilight
Moon
Length of Visible Light
Length of Day
Tomorrow will be .
, % of the Moon is Illuminated

Today's Extremes

Country Highs Country Lows

Community

WunderPhotos

Category 6

Welcome to Category 6. This is the collective home for Weather Underground's featured writeups by Dr. Jeff Masters (right), Bob Henson (left), Chris Burt, and other regular contributors.

Nearby

Air Quality

  Air Quality AQ Index Pollutant
Not available.

Snow Depth

Station Depth Elevation

Earthquake Activity

City Distance Mag. Time & Date
Minimum magnitude displayed is 2.5.

Coastal Water Temperatures

Place Temperature

Stations

Nearby Weather Stations

Station Location Temp. Windchill Dew Point Humidity Wind Precip. Elev Updated Type